Time;durP1;ratioP1;P1;durP2;ratioP2;P2;SDS_P1;SDS_P2;PMS_P1;PMS_P2;Temp;Humidity;BMP_temperature;BMP_pressure;BME280_temperature;BME280_humidity;BME280_pressure;Samples;Min_cycle;Max_cycle;Signal;HPM_P1;HPM_P2
2023/05/13 00:01:29;;;;;;;11.90;4.40;;;;;;;12.69;38.77;101360.79;111068;1209;96304;-61
2023/05/13 00:03:54;;;;;;;10.20;4.80;;;;;;;12.70;38.79;101363.41;111080;1212;138084;-61
2023/05/13 00:06:19;;;;;;;8.40;3.80;;;;;;;12.71;38.98;101360.34;111030;1211;95602;-61
2023/05/13 00:08:45;;;;;;;13.60;4.30;;;;;;;12.71;38.99;101359.09;111047;1212;138586;-61
2023/05/13 00:11:10;;;;;;;8.10;4.10;;;;;;;12.69;39.07;101358.25;111026;1209;94836;-61
2023/05/13 00:13:36;;;;;;;12.80;5.10;;;;;;;12.71;39.09;101361.26;111119;1209;94101;-61
2023/05/13 00:16:02;;;;;;;8.90;4.60;;;;;;;12.70;39.07;101359.31;111018;1211;137596;-61
2023/05/13 00:18:27;;;;;;;13.30;5.00;;;;;;;12.69;39.11;101357.54;111034;1209;96358;-61
2023/05/13 00:20:52;;;;;;;13.80;5.30;;;;;;;12.67;39.20;101359.04;110914;1208;137980;-62
2023/05/13 00:23:17;;;;;;;8.20;4.10;;;;;;;12.67;39.24;101357.63;111238;1212;96327;-61
2023/05/13 00:25:43;;;;;;;12.90;5.60;;;;;;;12.66;39.36;101359.98;111016;1209;95851;-61
2023/05/13 00:28:09;;;;;;;14.10;4.40;;;;;;;12.64;39.43;101354.52;111050;1209;140062;-62
2023/05/13 00:30:35;;;;;;;7.10;3.90;;;;;;;12.60;39.40;101354.29;111315;1209;109764;-61
2023/05/13 00:33:01;;;;;;;10.60;4.60;;;;;;;12.58;39.53;101353.52;110989;1212;138870;-62
2023/05/13 00:35:26;;;;;;;12.00;4.00;;;;;;;12.55;39.56;101354.70;111086;1212;95564;-62
2023/05/13 00:37:51;;;;;;;12.20;5.50;;;;;;;12.51;39.62;101356.66;111142;1209;96247;-62
2023/05/13 00:40:23;;;;;;;8.10;4.50;;;;;;;12.47;39.76;101357.19;110961;1209;139981;-62
2023/05/13 00:42:50;;;;;;;8.70;4.30;;;;;;;12.43;39.79;101354.66;111283;1209;107582;-62
2023/05/13 00:45:15;;;;;;;13.20;4.30;;;;;;;12.39;39.82;101356.27;111031;1209;137527;-61
2023/05/13 00:47:41;;;;;;;10.80;4.20;;;;;;;12.34;39.83;101354.81;111168;1209;94961;-62
2023/05/13 00:50:09;;;;;;;9.30;4.30;;;;;;;12.30;39.91;101358.21;111126;1212;96288;-62
2023/05/13 00:52:39;;;;;;;11.90;5.40;;;;;;;12.25;39.92;101362.34;110975;1213;137970;-62
2023/05/13 00:55:05;;;;;;;8.70;4.50;;;;;;;12.22;40.01;101358.88;110997;1212;96257;-62
2023/05/13 00:57:34;;;;;;;9.20;4.00;;;;;;;12.19;40.09;101358.28;110920;1209;137774;-61
2023/05/13 01:00:00;;;;;;;12.10;4.20;;;;;;;12.15;40.12;101359.69;111105;1213;96362;-62
2023/05/13 01:02:50;;;;;;;11.10;4.80;;;;;;;12.10;40.31;101362.05;111132;1209;96311;-62
2023/05/13 01:05:53;;;;;;;13.60;4.30;;;;;;;12.04;40.35;101361.91;111070;1213;108150;-61
2023/05/13 01:08:27;;;;;;;10.00;4.00;;;;;;;11.98;40.39;101359.80;111164;1212;96305;-61
2023/05/13 01:10:58;;;;;;;15.80;4.70;;;;;;;11.94;40.45;101361.39;110888;1209;137872;-61
2023/05/13 01:13:27;;;;;;;10.00;4.00;;;;;;;11.90;40.61;101359.73;111014;1212;110152;-62
2023/05/13 01:16:29;;;;;;;8.90;4.80;;;;;;;11.87;40.58;101364.33;110956;1209;138271;-61
2023/05/13 01:19:06;;;;;;;12.50;4.50;;;;;;;11.85;40.66;101368.55;111078;1209;108291;-61
2023/05/13 01:21:35;;;;;;;11.70;4.20;;;;;;;11.81;40.71;101372.98;110992;1212;138526;-61
2023/05/13 01:24:20;;;;;;;13.80;4.60;;;;;;;11.77;40.85;101375.79;111111;1209;94992;-61
2023/05/13 01:26:45;;;;;;;9.30;4.00;;;;;;;11.73;40.88;101373.77;111030;1209;137914;-61
2023/05/13 01:29:11;;;;;;;7.60;4.30;;;;;;;11.69;40.93;101371.24;111151;1208;97787;-61
2023/05/13 01:31:38;;;;;;;8.20;4.50;;;;;;;11.65;41.00;101376.92;111069;1212;96276;-63
2023/05/13 01:34:04;;;;;;;8.80;4.60;;;;;;;11.63;41.01;101378.09;111015;1209;139214;-61
2023/05/13 01:36:31;;;;;;;9.20;4.50;;;;;;;11.60;41.08;101376.59;111122;1209;96256;-61
2023/05/13 01:38:58;;;;;;;11.60;4.40;;;;;;;11.58;41.22;101378.80;110958;1209;139531;-62
2023/05/13 01:41:23;;;;;;;9.00;4.60;;;;;;;11.55;41.24;101375.50;110999;1211;96198;-61
2023/05/13 01:43:48;;;;;;;11.40;4.70;;;;;;;11.51;41.30;101376.91;111017;1209;96344;-61
2023/05/13 01:46:14;;;;;;;13.00;4.40;;;;;;;11.47;41.46;101377.21;110966;1209;138006;-61
2023/05/13 01:48:39;;;;;;;10.50;4.50;;;;;;;11.44;41.52;101382.52;111157;1215;96340;-61
2023/05/13 01:51:05;;;;;;;12.60;4.20;;;;;;;11.40;41.54;101381.02;110893;1212;139205;-61
2023/05/13 01:53:30;;;;;;;10.30;4.80;;;;;;;11.37;41.61;101382.75;111069;1209;95009;-61
2023/05/13 01:55:55;;;;;;;12.00;5.30;;;;;;;11.33;41.74;101385.05;111137;1209;94851;-61
2023/05/13 01:58:21;;;;;;;8.50;4.30;;;;;;;11.29;41.75;101386.41;110926;1209;137610;-63
2023/05/13 02:00:46;;;;;;;10.90;4.50;;;;;;;11.26;41.92;101391.35;111055;1212;96943;-61
2023/05/13 02:03:11;;;;;;;12.50;4.90;;;;;;;11.22;41.99;101390.61;110812;1221;138248;-61
2023/05/13 02:05:36;;;;;;;10.20;4.50;;;;;;;11.18;42.08;101392.18;111094;1212;96218;-61
2023/05/13 02:08:02;;;;;;;7.10;4.50;;;;;;;11.15;42.07;101392.10;111108;1212;96218;-61
2023/05/13 02:10:27;;;;;;;9.60;4.80;;;;;;;11.12;42.10;101388.45;111033;1212;139270;-60
2023/05/13 02:12:52;;;;;;;12.90;4.70;;;;;;;11.07;42.27;101386.28;111085;1212;96308;-61
2023/05/13 02:15:18;;;;;;;8.90;4.30;;;;;;;11.05;42.31;101389.59;110984;1209;141940;-60
2023/05/13 02:17:43;;;;;;;13.40;4.90;;;;;;;11.02;42.37;101387.36;111078;1209;95555;-61
2023/05/13 02:20:09;;;;;;;15.40;4.80;;;;;;;10.98;42.43;101389.45;111169;1213;96250;-60
2023/05/13 02:22:34;;;;;;;10.10;4.80;;;;;;;10.95;42.50;101387.04;111060;1209;137581;-61
2023/05/13 02:25:00;;;;;;;10.10;4.60;;;;;;;10.92;42.49;101388.94;110979;1212;96259;-60
2023/05/13 02:27:26;;;;;;;6.50;4.70;;;;;;;10.89;42.64;101387.26;111099;1212;137979;-61
2023/05/13 02:29:51;;;;;;;10.50;4.40;;;;;;;10.88;42.67;101389.08;111031;1213;96327;-61
2023/05/13 02:32:16;;;;;;;16.50;4.40;;;;;;;10.86;42.80;101390.56;111177;1209;95126;-61
2023/05/13 02:34:41;;;;;;;12.70;4.70;;;;;;;10.84;42.81;101394.02;110856;1209;138150;-60
2023/05/13 02:37:08;;;;;;;11.90;4.50;;;;;;;10.81;43.00;101394.84;111028;1209;96246;-60
2023/05/13 02:39:33;;;;;;;14.20;4.70;;;;;;;10.78;43.05;101393.34;111036;1209;137847;-61
2023/05/13 02:41:58;;;;;;;12.00;4.90;;;;;;;10.75;43.09;101393.78;111107;1209;96337;-61
2023/05/13 02:44:24;;;;;;;9.70;4.50;;;;;;;10.72;43.12;101393.68;111229;1209;94871;-61
2023/05/13 02:46:50;;;;;;;8.30;4.50;;;;;;;10.73;43.24;101393.14;111012;1212;137188;-61
2023/05/13 02:49:15;;;;;;;10.40;5.10;;;;;;;10.71;43.19;101396.77;111149;1209;96208;-61
2023/05/13 02:51:40;;;;;;;12.70;5.40;;;;;;;10.69;43.27;101393.25;110938;1209;140773;-61
2023/05/13 02:54:06;;;;;;;12.00;4.50;;;;;;;10.68;43.35;101395.27;111070;1209;96221;-60
2023/05/13 02:56:31;;;;;;;12.90;4.90;;;;;;;10.67;43.56;101394.57;111099;1209;138420;-61
2023/05/13 02:58:56;;;;;;;15.30;4.60;;;;;;;10.66;43.58;101398.02;111082;1210;96276;-60
2023/05/13 03:01:25;;;;;;;9.10;4.90;;;;;;;10.63;43.62;101398.11;111131;1212;96341;-61
2023/05/13 03:03:50;;;;;;;14.40;5.00;;;;;;;10.59;43.80;101405.00;110980;1212;138209;-60
2023/05/13 03:06:15;;;;;;;10.20;4.90;;;;;;;10.56;43.77;101408.50;111034;1214;96238;-61
2023/05/13 03:08:41;;;;;;;9.10;4.90;;;;;;;10.54;43.76;101410.91;111068;1209;138174;-61
2023/05/13 03:11:06;;;;;;;10.50;5.40;;;;;;;10.51;43.96;101405.46;111014;1214;94679;-60
2023/05/13 03:13:31;;;;;;;9.10;5.30;;;;;;;10.47;44.07;101403.60;111239;1208;96295;-60
2023/05/13 03:15:56;;;;;;;9.60;4.60;;;;;;;10.46;44.03;101409.36;110973;1212;139594;-60
2023/05/13 03:18:22;;;;;;;13.70;4.80;;;;;;;10.44;44.28;101410.14;111079;1212;97730;-60
2023/05/13 03:20:47;;;;;;;14.10;5.60;;;;;;;10.41;44.27;101409.88;110953;1212;138356;-60
2023/05/13 03:23:13;;;;;;;9.90;4.50;;;;;;;10.39;44.33;101407.81;110990;1209;97463;-63
2023/05/13 03:25:38;;;;;;;12.50;5.30;;;;;;;10.38;44.38;101407.48;111126;1209;96349;-62
2023/05/13 03:28:03;;;;;;;15.30;4.80;;;;;;;10.38;44.55;101410.00;110892;1209;137592;-61
2023/05/13 03:30:29;;;;;;;7.50;4.50;;;;;;;10.37;44.59;101405.93;111200;1209;96214;-63
2023/05/13 03:32:55;;;;;;;11.10;5.40;;;;;;;10.36;44.69;101405.94;111006;1212;137902;-60
2023/05/13 03:35:21;;;;;;;13.20;5.20;;;;;;;10.36;44.73;101403.43;111159;1208;97712;-63
2023/05/13 03:37:46;;;;;;;12.10;4.60;;;;;;;10.37;44.74;101407.52;111200;1209;96245;-61
2023/05/13 03:40:12;;;;;;;13.90;5.30;;;;;;;10.39;44.84;101406.56;110908;1212;138784;-61
2023/05/13 03:42:37;;;;;;;15.20;4.50;;;;;;;10.40;45.04;101403.48;111043;1209;96227;-61
2023/05/13 03:45:03;;;;;;;11.90;4.90;;;;;;;10.39;45.00;101406.55;111011;1212;138548;-60
2023/05/13 03:47:28;;;;;;;9.60;4.80;;;;;;;10.38;45.11;101409.63;111017;1209;98035;-60
2023/05/13 03:49:53;;;;;;;6.90;4.70;;;;;;;10.35;45.29;101412.21;111147;1212;96330;-60
2023/05/13 03:52:19;;;;;;;8.10;5.20;;;;;;;10.35;45.37;101415.98;110962;1209;137397;-60
2023/05/13 03:54:44;;;;;;;8.60;5.30;;;;;;;10.32;45.54;101421.62;111069;1213;96225;-60
2023/05/13 03:57:09;;;;;;;12.40;5.50;;;;;;;10.30;45.61;101422.91;111016;1208;139539;-61
2023/05/13 03:59:35;;;;;;;12.50;5.70;;;;;;;10.28;45.68;101426.19;111084;1209;96247;-61
2023/05/13 04:02:00;;;;;;;11.90;5.80;;;;;;;10.27;45.80;101426.94;111131;1209;96323;-60
2023/05/13 04:04:25;;;;;;;12.10;5.70;;;;;;;10.26;46.02;101425.70;110993;1209;137746;-60
2023/05/13 04:06:51;;;;;;;11.80;5.10;;;;;;;10.27;46.00;101430.52;111129;1209;96776;-61
2023/05/13 04:09:16;;;;;;;12.80;5.20;;;;;;;10.26;46.21;101430.00;111098;1209;138675;-60
2023/05/13 04:11:41;;;;;;;14.40;5.80;;;;;;;10.26;46.36;101428.41;111115;1213;96253;-61
2023/05/13 04:14:07;;;;;;;10.60;5.60;;;;;;;10.26;46.38;101435.54;111031;1209;95387;-60
2023/05/13 04:16:32;;;;;;;12.40;5.60;;;;;;;10.28;46.37;101434.40;110899;1212;137670;-61
2023/05/13 04:18:57;;;;;;;11.20;5.40;;;;;;;10.30;46.54;101439.17;111090;1212;96241;-61
2023/05/13 04:21:23;;;;;;;9.40;5.50;;;;;;;10.30;46.65;101434.88;111072;1213;138219;-61
2023/05/13 04:23:48;;;;;;;10.40;5.60;;;;;;;10.31;46.72;101434.86;111111;1209;96214;-60
2023/05/13 04:26:13;;;;;;;12.20;5.10;;;;;;;10.33;46.75;101436.77;111129;1212;96267;-60
2023/05/13 04:28:38;;;;;;;10.30;5.40;;;;;;;10.36;46.88;101442.57;111007;1209;138008;-60
2023/05/13 04:31:04;;;;;;;9.00;5.90;;;;;;;10.39;46.98;101441.56;111142;1209;96198;-61
2023/05/13 04:33:29;;;;;;;10.90;5.40;;;;;;;10.41;47.11;101442.91;110947;1208;137680;-61
2023/05/13 04:35:54;;;;;;;14.50;5.90;;;;;;;10.45;47.19;101443.86;110996;1209;96339;-61
2023/05/13 04:38:20;;;;;;;10.70;5.20;;;;;;;10.48;47.13;101446.45;111226;1212;96340;-60
2023/05/13 04:40:46;;;;;;;13.90;5.20;;;;;;;10.52;47.16;101446.69;110980;1209;140041;-61
2023/05/13 04:43:13;;;;;;;9.20;5.60;;;;;;;10.56;47.20;101444.98;111115;1209;96331;-60
2023/05/13 04:45:39;;;;;;;13.40;5.20;;;;;;;10.60;47.28;101446.63;111097;1212;138857;-61
2023/05/13 04:48:04;;;;;;;13.20;5.30;;;;;;;10.64;47.15;101446.85;111115;1212;96753;-61
2023/05/13 04:50:30;;;;;;;9.70;5.60;;;;;;;10.69;47.27;101449.73;111055;1209;96222;-61
2023/05/13 04:52:56;;;;;;;12.80;5.30;;;;;;;10.74;47.23;101446.02;111021;1213;138138;-61
2023/05/13 04:55:22;;;;;;;11.90;5.30;;;;;;;10.80;47.24;101448.33;111200;1209;96286;-61
2023/05/13 04:57:47;;;;;;;8.00;4.90;;;;;;;10.87;47.30;101447.58;110998;1209;139861;-61
2023/05/13 05:00:13;;;;;;;11.80;5.40;;;;;;;10.93;47.25;101445.41;110917;1209;96241;-61
2023/05/13 05:02:39;;;;;;;8.20;5.30;;;;;;;11.00;47.32;101444.48;110974;1209;138407;-61
2023/05/13 05:05:05;;;;;;;9.30;5.10;;;;;;;11.08;47.23;101443.15;110871;1212;96298;-61
2023/05/13 05:07:30;;;;;;;9.90;5.20;;;;;;;11.16;47.27;101445.20;111215;1209;96240;-61
2023/05/13 05:09:55;;;;;;;13.70;5.90;;;;;;;11.25;47.20;101444.20;110982;1209;137271;-61
2023/05/13 05:12:21;;;;;;;7.60;4.90;;;;;;;11.33;47.21;101442.84;110994;1212;97713;-61
2023/05/13 05:14:46;;;;;;;13.70;5.80;;;;;;;11.40;47.18;101448.88;111108;1209;137496;-61
2023/05/13 05:17:11;;;;;;;13.50;5.30;;;;;;;11.49;47.19;101446.95;110956;1209;110249;-61
2023/05/13 05:19:36;;;;;;;8.30;5.10;;;;;;;11.58;47.16;101450.05;111102;1209;96340;-61
2023/05/13 05:22:02;;;;;;;8.40;4.10;;;;;;;11.70;47.19;101450.70;110932;1212;138003;-61
2023/05/13 05:24:27;;;;;;;13.30;5.00;;;;;;;11.79;47.01;101452.02;111065;1209;94118;-61
2023/05/13 05:26:55;;;;;;;7.50;4.50;;;;;;;11.88;47.00;101450.62;110874;1209;137912;-60
2023/05/13 05:29:21;;;;;;;7.40;4.30;;;;;;;11.97;47.03;101452.25;111002;1209;108140;-61
2023/05/13 05:31:46;;;;;;;7.80;4.00;;;;;;;12.07;46.92;101449.94;110859;1209;96260;-60
2023/05/13 05:34:11;;;;;;;10.50;3.80;;;;;;;12.19;46.89;101452.35;110840;1209;137975;-60
2023/05/13 05:36:36;;;;;;;12.20;4.40;;;;;;;12.30;46.71;101451.73;111053;1209;96352;-61
2023/05/13 05:39:02;;;;;;;20.70;4.80;;;;;;;12.39;46.64;101451.59;111005;1212;139806;-60
2023/05/13 05:41:27;;;;;;;12.70;4.40;;;;;;;12.51;46.55;101450.60;111168;1209;96282;-60
2023/05/13 05:43:53;;;;;;;12.00;3.80;;;;;;;12.61;46.53;101448.20;111136;1208;96308;-60
2023/05/13 05:46:18;;;;;;;13.30;5.00;;;;;;;12.71;46.44;101449.45;110993;1209;138009;-60
2023/05/13 05:48:43;;;;;;;9.70;4.00;;;;;;;12.81;46.46;101452.12;111058;1209;97659;-60
2023/05/13 05:51:09;;;;;;;9.70;4.20;;;;;;;12.91;46.33;101451.17;111017;1212;137590;-61
2023/05/13 05:53:36;;;;;;;11.30;4.20;;;;;;;13.00;46.23;101451.33;111029;1209;96222;-60
2023/05/13 05:56:02;;;;;;;9.20;4.00;;;;;;;13.11;46.17;101455.35;111411;1212;107612;-60
2023/05/13 05:58:29;;;;;;;8.50;3.80;;;;;;;13.21;46.11;101454.23;112177;1208;138147;-61
2023/05/13 06:00:55;;;;;;;7.20;4.00;;;;;;;13.29;46.00;101458.02;113039;1209;94177;-61
2023/05/13 06:03:23;;;;;;;11.80;4.30;;;;;;;13.40;45.97;101457.02;112971;1208;137436;-60
2023/05/13 06:05:49;;;;;;;9.40;3.80;;;;;;;13.51;45.77;101451.16;113173;1209;94743;-60
2023/05/13 06:08:15;;;;;;;8.00;4.10;;;;;;;13.59;45.74;101451.90;112979;1208;94720;-60
2023/05/13 06:10:40;;;;;;;14.60;3.80;;;;;;;13.71;45.73;101453.75;111089;1208;137533;-61
2023/05/13 06:13:05;;;;;;;6.60;3.40;;;;;;;13.86;45.60;101450.04;111066;1213;96327;-60
2023/05/13 06:15:31;;;;;;;6.80;3.80;;;;;;;13.98;45.43;101452.37;110842;1208;137660;-61
2023/05/13 06:17:56;;;;;;;9.80;3.40;;;;;;;14.13;45.28;101452.73;111139;1215;96342;-61
2023/05/13 06:20:22;;;;;;;10.90;4.00;;;;;;;14.24;45.17;101454.25;110919;1214;109898;-61
2023/05/13 06:22:47;;;;;;;6.40;3.70;;;;;;;14.31;44.99;101452.45;110962;1214;139827;-61
2023/05/13 06:25:12;;;;;;;7.20;3.30;;;;;;;14.44;44.89;101450.44;110955;1209;96427;-61
2023/05/13 06:27:38;;;;;;;12.40;3.40;;;;;;;14.57;44.69;101451.12;110876;1214;137833;-61
2023/05/13 06:30:13;;;;;;;7.60;2.90;;;;;;;14.67;44.48;101452.06;111066;1209;96769;-61
2023/05/13 06:32:38;;;;;;;6.40;3.70;;;;;;;14.83;44.34;101448.07;111006;1212;139163;-62
2023/05/13 06:35:04;;;;;;;5.70;2.70;;;;;;;14.96;44.17;101448.88;111029;1212;96248;-62
2023/05/13 06:37:29;;;;;;;6.40;2.90;;;;;;;15.08;43.89;101450.08;111237;1209;94901;-62
2023/05/13 06:39:54;;;;;;;11.60;3.50;;;;;;;15.15;43.75;101449.55;110896;1212;139495;-61
2023/05/13 06:42:20;;;;;;;7.00;3.10;;;;;;;15.24;43.58;101449.27;111257;1213;95098;-61
2023/05/13 06:44:45;;;;;;;11.40;3.40;;;;;;;15.33;43.41;101451.19;111095;1209;138069;-61
2023/05/13 06:47:14;;;;;;;6.10;3.60;;;;;;;15.42;43.25;101444.06;111059;1209;96868;-61
2023/05/13 06:49:40;;;;;;;7.10;3.20;;;;;;;15.55;43.05;101441.95;110948;1209;96301;-61
2023/05/13 06:52:06;;;;;;;10.10;2.50;;;;;;;15.67;42.91;101439.73;111052;1209;138232;-61
2023/05/13 06:54:31;;;;;;;13.50;2.90;;;;;;;15.79;42.58;101445.36;111212;1209;96283;-61
2023/05/13 06:56:58;;;;;;;7.20;2.70;;;;;;;15.92;42.41;101445.23;111056;1212;138402;-62
2023/05/13 06:59:23;;;;;;;11.50;2.80;;;;;;;16.02;42.09;101445.41;111099;1214;94308;-61
2023/05/13 07:01:48;;;;;;;28.00;3.30;;;;;;;16.11;41.92;101441.69;111222;1209;94862;-62
2023/05/13 07:04:14;;;;;;;12.90;2.60;;;;;;;16.24;41.79;101438.65;110884;1212;137638;-64
2023/05/13 07:06:39;;;;;;;8.70;2.80;;;;;;;16.37;41.33;101439.38;111069;1212;96257;-61
2023/05/13 07:09:08;;;;;;;9.20;3.20;;;;;;;16.49;41.00;101440.33;110948;1209;139640;-61
2023/05/13 07:11:33;;;;;;;6.10;3.10;;;;;;;16.57;40.71;101439.34;111063;1209;96339;-61
2023/05/13 07:13:59;;;;;;;6.50;2.80;;;;;;;16.67;40.58;101434.87;111087;1215;96241;-62
2023/05/13 07:16:24;;;;;;;4.70;1.90;;;;;;;16.75;40.23;101438.52;110981;1214;137309;-61
2023/05/13 07:18:49;;;;;;;8.50;2.40;;;;;;;16.87;39.84;101434.60;111066;1208;96395;-64
2023/05/13 07:21:15;;;;;;;13.50;2.70;;;;;;;16.96;39.38;101435.92;110992;1209;137596;-61
2023/05/13 07:23:40;;;;;;;8.10;2.60;;;;;;;17.04;39.15;101435.45;111135;1214;101655;-62
2023/05/13 07:26:06;;;;;;;4.70;2.30;;;;;;;17.12;39.05;101435.52;111125;1209;97819;-62
2023/05/13 07:28:31;;;;;;;7.00;2.20;;;;;;;17.22;38.78;101437.45;110941;1215;137976;-62
2023/05/13 07:30:57;;;;;;;5.60;2.50;;;;;;;17.33;38.81;101435.89;111071;1213;94790;-61
2023/05/13 07:33:23;;;;;;;7.30;2.70;;;;;;;17.39;38.49;101434.98;110909;1209;138192;-61
2023/05/13 07:35:48;;;;;;;7.40;2.40;;;;;;;17.46;38.30;101428.98;111029;1214;96772;-63
2023/05/13 07:38:13;;;;;;;5.20;2.40;;;;;;;17.53;38.10;101424.73;111021;1210;96333;-63
2023/05/13 07:40:39;;;;;;;4.30;2.30;;;;;;;17.62;37.75;101427.13;110953;1209;138097;-60
2023/05/13 07:43:04;;;;;;;9.00;2.10;;;;;;;17.68;37.40;101426.96;110980;1212;96404;-64
2023/05/13 07:45:31;;;;;;;5.50;2.60;;;;;;;17.75;37.18;101431.80;110837;1215;137529;-63
2023/05/13 07:47:56;;;;;;;7.40;2.50;;;;;;;17.81;37.11;101427.98;113056;1208;94933;-62
2023/05/13 07:50:22;;;;;;;5.80;1.80;;;;;;;17.88;37.11;101420.48;112972;1210;101030;-63
2023/05/13 07:52:48;;;;;;;9.40;2.60;;;;;;;17.99;36.76;101419.44;110742;1215;138377;-65
2023/05/13 07:55:14;;;;;;;10.80;2.20;;;;;;;18.09;36.65;101418.80;110965;1209;96344;-65
2023/05/13 07:57:40;;;;;;;10.20;2.30;;;;;;;18.18;36.35;101416.63;110964;1212;137524;-66
2023/05/13 08:00:06;;;;;;;6.60;2.50;;;;;;;18.29;36.03;101413.90;110926;1210;96325;-65
2023/05/13 08:02:33;;;;;;;9.90;2.30;;;;;;;18.35;35.87;101411.53;111175;1223;96337;-66
2023/05/13 08:05:00;;;;;;;9.40;2.00;;;;;;;18.41;35.78;101411.13;110882;1213;137385;-65
2023/05/13 08:07:25;;;;;;;6.80;2.10;;;;;;;18.46;35.74;101408.29;111003;1210;96216;-61
2023/05/13 08:09:50;;;;;;;7.20;2.40;;;;;;;18.54;35.49;101412.10;110982;1214;138950;-65
2023/05/13 08:12:15;;;;;;;13.80;2.60;;;;;;;18.64;35.40;101410.60;110885;1209;96288;-61
2023/05/13 08:14:41;;;;;;;4.40;1.80;;;;;;;18.68;35.10;101408.73;110705;1209;138537;-62
2023/05/13 08:17:06;;;;;;;5.90;2.50;;;;;;;18.73;34.92;101410.36;111084;1209;96224;-63
2023/05/13 08:19:32;;;;;;;11.40;2.60;;;;;;;18.79;34.67;101408.71;110987;1209;96253;-61
2023/05/13 08:21:57;;;;;;;11.50;3.10;;;;;;;18.86;34.62;101411.54;110722;1209;137576;-61
2023/05/13 08:24:22;;;;;;;5.90;2.30;;;;;;;18.87;34.20;101405.83;111119;1214;96266;-61
2023/05/13 08:26:48;;;;;;;6.00;2.00;;;;;;;18.92;34.06;101405.91;110967;1210;138239;-64
2023/05/13 08:29:14;;;;;;;7.30;2.30;;;;;;;18.97;33.99;101407.34;111144;1209;96333;-61
2023/05/13 08:31:40;;;;;;;8.80;2.40;;;;;;;19.06;33.96;101404.38;110984;1212;98103;-60
2023/05/13 08:34:06;;;;;;;10.40;2.40;;;;;;;19.13;33.73;101403.71;111108;1208;137289;-60
2023/05/13 08:36:31;;;;;;;3.20;1.80;;;;;;;19.19;33.45;101403.53;111161;1209;96323;-64
2023/05/13 08:38:56;;;;;;;5.10;1.80;;;;;;;19.21;33.09;101404.30;110855;1214;138183;-64
2023/05/13 08:41:21;;;;;;;4.60;1.90;;;;;;;19.26;32.91;101401.02;111123;1209;96324;-65
2023/05/13 08:43:48;;;;;;;6.60;2.20;;;;;;;19.31;32.55;101394.73;110972;1213;101651;-65
2023/05/13 08:46:15;;;;;;;7.70;3.10;;;;;;;19.32;32.27;101401.21;110913;1209;138721;-62
2023/05/13 08:48:41;;;;;;;12.70;2.60;;;;;;;19.35;32.14;101400.77;111027;1209;96243;-62
2023/05/13 08:51:08;;;;;;;11.10;2.20;;;;;;;19.39;32.02;101401.39;110908;1209;138644;-62
2023/05/13 08:53:35;;;;;;;10.70;2.40;;;;;;;19.41;31.89;101407.43;111318;1209;96211;-63
2023/05/13 08:56:01;;;;;;;8.00;2.50;;;;;;;19.42;31.88;101402.13;111081;1212;96307;-62
2023/05/13 08:58:27;;;;;;;5.90;2.10;;;;;;;19.42;31.78;101402.85;111215;1207;138149;-62
2023/05/13 09:00:53;;;;;;;6.20;1.90;;;;;;;19.42;31.54;101408.28;111223;1206;96238;-62
2023/05/13 09:03:20;;;;;;;4.70;2.10;;;;;;;19.45;31.57;101405.70;111195;1206;139150;-62
2023/05/13 09:05:46;;;;;;;5.60;1.70;;;;;;;19.50;31.57;101405.61;111340;1208;96318;-62
2023/05/13 09:08:11;;;;;;;5.20;2.00;;;;;;;19.53;31.44;101406.30;111302;1209;96331;-62
2023/05/13 09:10:37;;;;;;;7.10;2.00;;;;;;;19.56;31.30;101402.13;111292;1209;138488;-62
2023/05/13 09:13:03;;;;;;;10.00;2.30;;;;;;;19.57;31.24;101396.08;111285;1208;96330;-62
2023/05/13 09:15:29;;;;;;;31.10;3.60;;;;;;;19.61;31.22;101395.98;111344;1206;139318;-62
2023/05/13 09:17:59;;;;;;;6.60;2.00;;;;;;;19.61;30.84;101393.98;111430;1206;96415;-62
2023/05/13 09:20:25;;;;;;;4.90;2.20;;;;;;;19.62;30.75;101396.23;111377;1206;96224;-62
2023/05/13 09:23:06;;;;;;;3.20;2.20;;;;;;;19.65;30.81;101395.12;111353;1209;137361;-62
2023/05/13 09:25:34;;;;;;;;;;;;;;;19.68;30.81;101393.64;111448;1206;95012;-62
2023/05/13 09:28:02;;;;;;;7.10;2.30;;;;;;;19.70;30.77;101392.21;111186;1206;124647;-62
2023/05/13 09:30:40;;;;;;;3.90;1.80;;;;;;;19.75;30.60;101393.35;111384;1209;96200;-63
2023/05/13 09:33:09;;;;;;;7.30;2.00;;;;;;;19.80;30.62;101391.70;111249;1206;139416;-62
2023/05/13 09:35:40;;;;;;;4.60;1.90;;;;;;;19.84;30.54;101390.73;111308;1208;101459;-63
2023/05/13 09:38:37;;;;;;;6.30;2.10;;;;;;;19.87;30.37;101387.30;111338;1211;96820;-62
2023/05/13 09:41:04;;;;;;;9.00;1.70;;;;;;;19.91;30.25;101387.88;111187;1208;100978;-62
2023/05/13 09:43:32;;;;;;;5.60;1.90;;;;;;;19.92;30.06;101383.96;111351;1208;96376;-62
2023/05/13 09:46:02;;;;;;;8.50;3.40;;;;;;;19.99;30.10;101382.01;111234;1208;137290;-62
2023/05/13 09:48:30;;;;;;;10.90;1.90;;;;;;;20.12;30.17;101376.75;111381;1206;102229;-62
2023/05/13 09:50:56;;;;;;;5.70;1.90;;;;;;;20.22;30.08;101380.73;111160;1210;139899;-62
2023/05/13 09:53:23;;;;;;;9.40;2.00;;;;;;;20.27;30.03;101377.44;111339;1206;96666;-62
2023/05/13 09:55:50;;;;;;;27.50;3.40;;;;;;;20.31;29.89;101373.92;111436;1208;96352;-62
2023/05/13 09:58:17;;;;;;;6.10;2.40;;;;;;;20.32;29.81;101370.92;111233;1206;137541;-63
2023/05/13 10:00:44;;;;;;;10.00;2.50;;;;;;;20.31;29.77;101372.63;111276;1209;96344;-62
2023/05/13 10:03:10;;;;;;;4.00;2.00;;;;;;;20.32;29.62;101374.60;111258;1206;137879;-64
2023/05/13 10:05:37;;;;;;;14.10;2.00;;;;;;;20.29;29.70;101365.70;111312;1206;93945;-62
2023/05/13 10:08:04;;;;;;;3.40;2.20;;;;;;;20.30;29.57;101368.15;111376;1208;96695;-62
2023/05/13 10:10:31;;;;;;;5.10;1.90;;;;;;;20.31;29.62;101372.96;111154;1208;137417;-63
2023/05/13 10:13:11;;;;;;;4.50;2.20;;;;;;;20.39;29.70;101374.23;111315;1207;96302;-63
2023/05/13 10:15:45;;;;;;;11.20;2.80;;;;;;;20.46;29.61;101369.20;111248;1206;137257;-63
2023/05/13 10:18:10;;;;;;;6.70;1.80;;;;;;;20.55;29.63;101363.13;111283;1206;96337;-63
2023/05/13 10:20:36;;;;;;;7.80;1.70;;;;;;;20.62;29.64;101366.98;111297;1208;96234;-62
2023/05/13 10:23:03;;;;;;;11.40;2.30;;;;;;;20.62;29.45;101369.71;111409;1206;137470;-62
2023/05/13 10:25:28;;;;;;;4.30;2.20;;;;;;;20.61;29.48;101367.91;111278;1206;98876;-63
2023/05/13 10:27:56;;;;;;;3.00;1.80;;;;;;;20.74;29.38;101364.94;111088;1204;137251;-62
2023/05/13 10:30:25;;;;;;;8.70;2.40;;;;;;;20.89;29.34;101357.80;111355;1206;96311;-62
2023/05/13 10:32:51;;;;;;;5.60;2.00;;;;;;;21.05;29.25;101360.95;111261;1210;138879;-62
2023/05/13 10:35:20;;;;;;;12.20;2.00;;;;;;;21.27;29.39;101366.17;111399;1206;94848;-62
2023/05/13 10:38:23;;;;;;;6.80;2.00;;;;;;;21.50;29.20;101362.27;111321;1212;99200;-63
2023/05/13 10:41:31;;;;;;;7.30;2.40;;;;;;;21.67;29.14;101364.55;111266;1208;138737;-63
2023/05/13 10:43:57;;;;;;;6.10;2.40;;;;;;;21.91;28.80;101365.73;111311;1212;96284;-62
2023/05/13 10:46:23;;;;;;;6.30;2.30;;;;;;;22.13;28.78;101353.81;111239;1206;138081;-62
2023/05/13 10:48:49;;;;;;;23.90;2.40;;;;;;;22.23;28.54;101356.95;111360;1206;96305;-61
2023/05/13 10:51:16;;;;;;;14.30;2.00;;;;;;;22.21;28.44;101359.14;111232;1206;138237;-62
2023/05/13 10:53:48;;;;;;;23.30;2.10;;;;;;;22.11;28.53;101360.20;111458;1206;96784;-62
2023/05/13 10:56:14;;;;;;;7.70;2.10;;;;;;;22.10;28.19;101359.92;111353;1212;101421;-62
2023/05/13 10:58:39;;;;;;;6.40;2.20;;;;;;;22.12;27.95;101362.23;111387;1208;138562;-62
2023/05/13 11:01:27;;;;;;;3.70;1.70;;;;;;;22.12;28.05;101357.55;111275;1208;94431;-62
2023/05/13 11:03:54;;;;;;;42.50;4.20;;;;;;;22.17;28.03;101358.79;111230;1206;138036;-63
2023/05/13 11:06:32;;;;;;;7.80;2.30;;;;;;;22.32;27.92;101362.98;111382;1209;96989;-62
2023/05/13 11:08:57;;;;;;;5.30;2.00;;;;;;;22.51;27.80;101351.59;111239;1209;137531;-63